Latest Weather Observations for Archerfield

IDQ60801

Issued at 5:05 am EST Wednesday 17 September 2014 (issued every 30 minutes, with the page automatically refreshed every 10 minutes)

About weather observations | Map of weather stations | Latest weather observations for QLD | Other Formats
Station Details ID: 040211 Name: ARCHERFIELD AIRPORT Lat: -27.57 Lon: 153.01 Height: 12.5 m
Data from the previous 72 hours. | See also: Recent months at Archerfield
Date/Time
EST
Temp
°C
App
Temp
°C
Dew
Point
Rel
Hum
%
Delta-T
°C
Wind Press
QNH
hPa
Press
MSL
hPa
Rain
since 9 am
mm
Dir
 
Spd
km/h
Gust
km/h
Spd
kts
Gust
kts
17/05:00am 11.5 11.3 10.6 94 0.5 NNE 2 6 1 3 1013.5 1013.4 0.0
17/04:55am 11.6 11.8 10.7 94 0.5 NNE 0 0 0 0 1013.4 1013.3 0.0
17/04:30am 11.6 10.6 10.2 91 0.7 SE 6 7 3 4 1013.3 1013.2 0.0
17/04:00am 12.3 12.0 11.5 95 0.4 SSW 4 6 2 3 1013.1 1013.0 0.0
17/03:30am 12.6 11.9 11.5 93 0.6 S 6 7 3 4 1012.6 1012.5 0.0
17/03:00am 13.6 13.1 12.5 93 0.6 S 7 9 4 5 1012.4 1012.3 0.0
17/02:30am 14.1 13.6 12.8 92 0.7 S 7 9 4 5 1012.4 1012.3 0.0
17/02:00am 15.3 14.6 14.2 93 0.6 SSE 11 15 6 8 1012.7 1012.6 0.0
17/01:30am 15.5 15.6 13.9 90 0.9 SSE 6 11 3 6 1012.7 1012.6 0.0
17/01:00am 16.8 18.4 14.8 88 1.2 CALM 0 0 0 0 1012.8 1012.7 0.0
17/12:30am 16.8 17.2 14.8 88 1.2 NE 6 7 3 4 1012.9 1012.8 0.0
17/12:00am 16.9 16.3 14.7 87 1.3 NNE 11 13 6 7 1012.8 1012.7 0.0
 
Date/Time
EST
Temp
°C
App
Temp
°C
Dew
Point
Rel
Hum
%
Delta-T
°C
Wind Press
QNH
hPa
Press
MSL
hPa
Rain
since 9 am
mm
Dir
 
Spd
km/h
Gust
km/h
Spd
kts
Gust
kts
16/11:30pm 16.6 16.0 14.6 88 1.1 NNE 11 13 6 7 1013.0 1012.9 0.0
16/11:00pm 17.3 16.2 15.3 88 1.2 N 15 17 8 9 1013.0 1012.9 0.0
16/10:30pm 18.4 19.2 15.8 85 1.5 N 6 9 3 5 1013.1 1013.0 0.0
16/10:00pm 19.0 18.2 16.2 84 1.7 N 15 20 8 11 1012.7 1012.6 0.0
16/09:30pm 18.8 18.3 16.0 84 1.7 N 13 15 7 8 1012.6 1012.5 0.0
16/09:00pm 19.3 18.9 16.2 82 1.9 N 13 20 7 11 1012.6 1012.5 0.0
16/08:30pm 19.8 18.2 15.9 78 2.3 N 19 26 10 14 1012.6 1012.5 0.0
16/08:00pm 19.9 18.9 15.7 77 2.5 NNE 15 20 8 11 1012.2 1012.1 0.0
16/07:30pm 20.9 18.7 15.9 73 3.0 N 22 30 12 16 1012.7 1012.6 0.0
16/07:00pm 21.3 19.5 15.6 70 3.4 N 19 28 10 15 1012.4 1012.3 0.0
16/06:30pm 21.9 17.9 15.3 66 3.9 N 30 39 16 21 1011.5 1011.4 0.0
16/06:00pm 22.3 17.8 14.9 63 4.4 N 32 46 17 25 1011.1 1011.0 0.0
16/05:30pm 22.8 20.2 14.9 61 4.7 N 22 32 12 17 1011.2 1011.1 0.0
16/05:00pm 22.6 20.9 15.7 65 4.2 N 19 28 10 15 1010.4 1010.3 0.0
16/04:30pm 23.6 19.3 15.4 60 4.9 N 32 43 17 23 1010.5 1010.4 0.0
16/04:00pm 25.2 21.5 14.9 52 6.2 NNE 28 37 15 20 1010.4 1010.3 0.0
16/03:30pm 24.7 20.7 16.2 59 5.2 NNE 32 43 17 23 1010.5 1010.4 0.0
16/03:00pm 24.8 20.4 15.7 57 5.5 NNE 33 43 18 23 1010.7 1010.6 0.0
16/02:30pm 26.1 21.8 15.5 52 6.4 N 32 39 17 21 1010.9 1010.8 0.0
16/02:00pm 26.9 23.5 15.9 51 6.7 NNE 28 37 15 20 1011.2 1011.1 0.0
16/01:30pm 27.1 23.8 15.1 47 7.3 NNE 26 35 14 19 1011.7 1011.6 0.0
16/01:00pm 27.0 24.1 15.1 48 7.2 NE 24 28 13 15 1012.3 1012.2 0.0
16/12:30pm 26.9 23.8 12.2 40 8.5 N 20 37 11 20 1012.9 1012.8 0.0
16/12:00pm 26.8 24.1 10.5 36 9.1 N 15 24 8 13 1013.7 1013.6 0.0
16/11:30am 26.6 24.4 10.7 37 8.9 NE 13 28 7 15 1014.3 1014.2 0.0
16/11:00am 26.0 22.7 11.0 39 8.5 N 19 26 10 14 1014.9 1014.8 0.0
16/10:30am 24.9 21.5 10.4 40 8.0 N 19 26 10 14 1015.4 1015.3 0.0
16/10:00am 24.5 22.0 11.1 43 7.5 NNW 15 26 8 14 1016.0 1015.9 0.0
16/09:30am 23.6 22.2 12.3 49 6.4 N 11 19 6 10 1016.8 1016.7 0.0
16/09:00am 22.3 20.0 11.7 51 5.9 NNW 15 22 8 12 1017.2 1017.1 0.0
16/08:30am 20.9 18.9 12.6 59 4.7 N 15 20 8 11 1017.0 1016.9 0.0
16/08:00am 18.8 19.3 14.1 74 2.7 NNE 4 7 2 4 1017.2 1017.1 0.0
16/07:30am 16.9 18.2 14.0 83 1.6 CALM 0 0 0 0 1017.2 1017.1 0.0
16/07:00am 14.7 15.7 13.2 91 0.8 CALM 0 0 0 0 1017.0 1016.9 0.0
16/06:30am 13.1 13.4 12.2 94 0.5 S 2 7 1 4 1016.9 1016.8 0.0
16/06:12am 12.5 13.0 11.7 95 0.4 CALM 0 0 0 0 1016.9 1016.8 0.0
16/06:00am 12.1 12.6 11.5 96 0.3 CALM 0 0 0 0 1016.7 1016.6 0.0
16/05:51am 11.3 11.5 10.4 94 0.5 CALM 0 0 0 0 1016.7 1016.6 0.0
16/05:30am 11.0 10.6 9.8 92 0.6 SSW 2 6 1 3 1016.5 1016.4 0.0
16/05:00am 12.6 13.0 11.2 91 0.7 CALM 0 0 0 0 1016.2 1016.1 0.0
16/04:30am 13.4 14.1 12.3 93 0.6 CALM 0 0 0 0 1016.0 1015.9 0.0
16/04:00am 13.2 13.8 11.9 92 0.7 CALM 0 0 0 0 1015.8 1015.7 0.0
16/03:30am 13.6 13.1 12.7 94 0.5 SSW 7 7 4 4 1015.6 1015.5 0.0
16/03:00am 13.0 13.5 11.6 91 0.7 CALM 0 4 0 2 1015.5 1015.4 0.0
16/02:30am 14.6 15.2 13.0 90 0.9 S 2 9 1 5 1015.4 1015.3 0.0
16/02:00am 14.8 14.3 12.8 88 1.1 S 7 7 4 4 1015.5 1015.4 0.0
16/01:30am 15.0 15.2 13.0 88 1.1 NNE 4 7 2 4 1015.5 1015.4 0.0
16/01:00am 15.4 15.3 13.2 87 1.2 NNE 6 7 3 4 1015.6 1015.5 0.0
16/12:30am 15.5 14.4 13.0 85 1.4 NE 11 13 6 7 1015.6 1015.5 0.0
16/12:00am 15.6 15.1 12.7 83 1.6 NW 7 9 4 5 1016.0 1015.9 0.0
 
Date/Time
EST
Temp
°C
App
Temp
°C
Dew
Point
Rel
Hum
%
Delta-T
°C
Wind Press
QNH
hPa
Press
MSL
hPa
Rain
since 9 am
mm
Dir
 
Spd
km/h
Gust
km/h
Spd
kts
Gust
kts
15/11:30pm 16.8 16.3 13.7 82 1.8 N 9 15 5 8 1016.1 1016.0 0.0
15/11:00pm 17.6 16.7 13.7 78 2.2 N 11 17 6 9 1016.1 1016.0 0.0
15/10:30pm 18.3 15.8 14.2 77 2.4 N 20 26 11 14 1016.1 1016.0 0.0
15/10:00pm 18.7 16.5 14.8 78 2.3 N 20 26 11 14 1016.1 1016.0 0.0
15/09:30pm 18.3 16.7 15.0 81 1.9 N 17 24 9 13 1016.2 1016.1 0.0
15/09:00pm 18.5 16.5 15.0 80 2.0 NNE 19 24 10 13 1016.4 1016.3 0.0
15/08:30pm 18.6 16.6 14.9 79 2.2 NNE 19 24 10 13 1016.4 1016.3 0.0
15/08:00pm 18.8 17.2 15.1 79 2.2 NNE 17 22 9 12 1016.2 1016.1 0.0
15/07:30pm 19.0 17.6 15.5 80 2.1 NNE 17 22 9 12 1016.1 1016.0 0.0
15/07:00pm 19.1 18.0 15.4 79 2.2 NE 15 20 8 11 1015.8 1015.7 0.0
15/06:30pm 19.7 18.1 14.9 74 2.8 NE 17 24 9 13 1015.6 1015.5 0.0
15/06:00pm 20.4 18.2 15.0 71 3.2 NNE 20 28 11 15 1015.0 1014.9 0.0
15/05:30pm 20.7 18.1 13.9 65 3.9 NNE 20 28 11 15 1014.7 1014.6 0.0
15/05:00pm 22.0 17.4 12.3 54 5.5 NNE 28 33 15 18 1014.3 1014.2 0.0
15/04:30pm 23.3 19.5 12.3 50 6.3 N 24 32 13 17 1014.2 1014.1 0.0
15/04:00pm 23.6 19.0 12.3 49 6.4 N 28 35 15 19 1014.0 1013.9 0.0
15/03:30pm 24.6 20.1 12.5 46 7.0 N 28 35 15 19 1013.8 1013.7 0.0
15/03:00pm 24.9 20.4 12.5 46 7.1 N 28 33 15 18 1013.9 1013.8 0.0
15/02:30pm 25.9 22.3 13.1 45 7.5 N 24 32 13 17 1014.2 1014.1 0.0
15/02:00pm 26.4 22.6 12.5 42 8.0 N 24 35 13 19 1014.4 1014.3 0.0
15/01:30pm 26.1 23.5 10.7 38 8.6 N 15 24 8 13 1014.8 1014.7 0.0
15/01:00pm 26.7 25.1 11.6 39 8.6 NNW 11 19 6 10 1015.4 1015.3 0.0
15/12:30pm 26.0 24.7 11.4 40 8.3 SSW 9 17 5 9 1016.1 1016.0 0.0
15/12:00pm 24.3 22.9 10.9 43 7.5 NW 9 15 5 8 1016.7 1016.6 0.0
15/11:30am 24.6 23.6 12.2 46 7.1 NNW 9 17 5 9 1017.3 1017.2 0.0
15/11:00am 23.8 22.9 11.2 45 7.0 WNW 7 17 4 9 1017.9 1017.8 0.0
15/10:30am 23.2 22.3 11.3 47 6.7 NNW 7 13 4 7 1018.4 1018.3 0.0
15/10:00am 21.9 20.8 10.7 49 6.1 W 7 13 4 7 1019.0 1018.9 0.0
15/09:30am 21.3 20.6 11.3 53 5.5 NW 6 9 3 5 1019.3 1019.2 0.0
15/09:00am 19.7 18.7 12.2 62 4.2 WSW 9 13 5 7 1019.8 1019.7 0.0
15/08:30am 18.7 18.5 13.1 70 3.2 SW 6 11 3 6 1019.9 1019.8 0.0
15/08:00am 16.8 17.1 13.3 80 2.0 S 4 9 2 5 1019.9 1019.8 0.0
15/07:30am 15.0 15.9 12.9 87 1.2 CALM 0 0 0 0 1019.8 1019.7 0.0
15/07:00am 13.0 12.4 11.6 91 0.7 S 6 7 3 4 1019.8 1019.7 0.0
15/06:30am 12.0 12.4 11.2 95 0.4 CALM 0 0 0 0 1019.2 1019.1 0.0
15/06:00am 10.4 10.3 9.6 95 0.4 CALM 0 6 0 3 1019.1 1019.0 0.0
15/05:30am 10.4 8.6 9.6 95 0.4 SSW 9 11 5 6 1018.8 1018.7 0.0
15/05:00am 10.4 9.1 9.3 93 0.5 SSE 6 7 3 4 1018.5 1018.4 0.0
15/04:30am 11.1 11.3 10.5 96 0.3 CALM 0 0 0 0 1018.6 1018.5 0.0
15/04:26am 10.9 11.1 10.4 97 0.3 CALM 0 0 0 0 1018.5 1018.4 0.0
15/04:07am 9.9 9.6 8.5 91 0.7 CALM 0 0 0 0 1018.2 1018.1 0.0
15/04:00am 10.8 10.4 9.6 92 0.6 S 2 7 1 4 1018.3 1018.2 0.0
15/03:30am 11.2 10.5 10.1 93 0.6 SSW 4 9 2 5 1018.3 1018.2 0.0
15/03:00am 12.1 11.1 11.0 93 0.6 SE 7 9 4 5 1018.3 1018.2 0.0
15/02:30am 12.0 10.6 10.9 93 0.6 S 9 11 5 6 1018.5 1018.4 0.0
15/02:00am 12.5 11.7 11.2 92 0.7 S 6 9 3 5 1018.8 1018.7 0.0
15/01:30am 12.8 12.0 11.2 90 0.8 SSE 6 7 3 4 1019.0 1018.9 0.0
15/01:00am 12.3 11.0 10.0 86 1.2 S 7 9 4 5 1019.4 1019.3 0.0
15/12:30am 14.1 13.4 12.1 88 1.1 S 7 9 4 5 1019.5 1019.4 0.0
15/12:00am 14.2 13.5 11.9 86 1.2 S 7 9 4 5 1019.7 1019.6 0.0
 
Date/Time
EST
Temp
°C
App
Temp
°C
Dew
Point
Rel
Hum
%
Delta-T
°C
Wind Press
QNH
hPa
Press
MSL
hPa
Rain
since 9 am
mm
Dir
 
Spd
km/h
Gust
km/h
Spd
kts
Gust
kts
14/11:30pm 14.7 14.6 12.0 84 1.5 E 4 7 2 4 1019.8 1019.7 0.0
14/11:00pm 15.8 15.2 12.4 80 1.9 NNE 7 9 4 5 1019.9 1019.8 0.0
14/10:30pm 15.4 14.1 12.5 83 1.6 NNE 11 13 6 7 1019.9 1019.8 0.0
14/10:00pm 16.0 15.1 12.7 81 1.8 N 9 11 5 6 1020.0 1019.9 0.0
14/09:30pm 16.0 15.1 12.6 80 1.9 N 9 13 5 7 1019.9 1019.8 0.0
14/09:00pm 16.0 15.1 12.6 80 1.9 NNE 9 9 5 5 1020.0 1019.9 0.0
14/08:30pm 16.2 15.3 12.6 79 2.0 NNE 9 13 5 7 1020.0 1019.9 0.0
14/08:00pm 17.0 15.1 12.9 77 2.3 N 15 19 8 10 1020.0 1019.9 0.0
14/07:30pm 17.2 15.6 12.7 75 2.5 NNE 13 19 7 10 1019.8 1019.7 0.0
14/07:00pm 17.9 16.3 12.8 72 2.8 NE 13 19 7 10 1019.8 1019.7 0.0
14/06:30pm 18.4 16.0 12.6 69 3.2 NE 17 20 9 11 1019.5 1019.4 0.0
14/06:00pm 18.7 16.3 12.5 67 3.5 NNE 17 22 9 12 1019.3 1019.2 0.0
14/05:30pm 19.6 16.7 12.4 63 4.0 NNE 19 24 10 13 1019.1 1019.0 0.0
14/05:00pm 20.8 17.6 12.0 57 4.9 NE 20 28 11 15 1018.9 1018.8 0.0
14/04:30pm 21.8 18.3 12.1 54 5.5 NNE 22 32 12 17 1018.7 1018.6 0.0
14/04:00pm 22.4 18.4 11.8 51 5.9 NNE 24 30 13 16 1018.5 1018.4 0.0
14/03:30pm 23.4 20.3 12.1 49 6.4 NNE 20 28 11 15 1018.4 1018.3 0.0
14/03:00pm 24.1 21.0 12.1 47 6.8 NE 20 28 11 15 1018.5 1018.4 0.0
14/02:30pm 24.2 21.0 11.9 46 7.0 NE 20 24 11 13 1018.6 1018.5 0.0
14/02:00pm 24.3 21.2 11.6 45 7.2 N 19 26 10 14 1019.0 1018.9 0.0
14/01:30pm 23.6 20.7 12.3 49 6.4 NE 19 24 10 13 1019.3 1019.2 0.0
14/01:00pm 23.3 22.1 11.7 48 6.5 NNW 9 13 5 7 1019.8 1019.7 0.0
14/12:30pm 23.4 20.8 12.1 49 6.4 NNE 17 20 9 11 1020.4 1020.3 0.0
14/12:00pm 23.8 23.2 12.4 48 6.5 SE 7 17 4 9 1020.9 1020.8 0.0
14/11:30am 23.0 21.8 11.7 49 6.4 NNW 9 19 5 10 1021.7 1021.6 0.0
14/11:00am 22.6 21.4 11.7 50 6.1 N 9 15 5 8 1022.1 1022.0 0.0
14/10:30am 23.2 23.4 13.1 53 5.8 E 4 11 2 6 1022.5 1022.4 0.0
14/10:00am 22.0 21.4 12.3 54 5.5 NW 7 13 4 7 1022.9 1022.8 0.0
14/09:30am 20.6 20.4 13.1 62 4.3 WNW 6 9 3 5 1023.2 1023.2 0.0
14/09:00am 19.3 18.5 12.8 66 3.6 SW 9 13 5 7 1023.4 1023.4 0.0
14/08:30am 17.7 17.2 12.8 73 2.7 SSW 7 15 4 8 1023.4 1023.4 0.0
14/08:00am 15.8 16.6 12.4 80 1.9 CALM 0 0 0 0 1023.4 1023.4 0.0
14/07:30am 14.2 14.7 11.7 85 1.3 CALM 0 0 0 0 1023.2 1023.2 0.0
14/07:00am 12.8 13.3 11.5 92 0.7 CALM 0 0 0 0 1023.3 1023.3 0.0
14/06:30am 11.6 11.5 10.8 95 0.4 SW 2 7 1 4 1023.1 1023.1 0.0
14/06:00am 10.7 10.2 9.3 91 0.7 SW 2 6 1 3 1022.8 1022.7 0.0
14/05:30am 11.7 10.8 10.6 93 0.6 SSW 6 7 3 4 1022.7 1022.6 0.0

Other Formats:

Comma delimited format used in spreadsheet applications
http://www.bom.gov.au/fwo/IDQ60801/IDQ60801.94575.axf

JavaScript Object Notation format (JSON) in row-major order
http://www.bom.gov.au/fwo/IDQ60801/IDQ60801.94575.json